Terminal Aerodrome Forecast
Issued by NWS Louisville, KY

Home | Current Version | Previous Version | Text Only | Print | Product List | Glossary On
Versions: 1 2 3 4 5 6 7 8 9 10 11 12 13 14 15 16
000
FTUS43 KLMK 030500
TAFLEX
TAF
KLEX 030520Z 0306/0406 10007KT P6SM BKN150
     FM031100 12006KT P6SM BKN025
     FM031300 15009KT 6SM BR VCSH BKN015
      TEMPO 0314/0317 4SM -SHRA BR BKN008
     FM031700 20012G20KT 3SM -RA BKN008
     FM040000 22013KT 3SM -RA BR BKN004=

USA.gov is the U.S. government's official web portal to all federal, state and local government web resources and services.